x

Lahaina / West Maui Weather Station

8:45 - Fri 2nd Dec 2016 All times are HST. -10 hours from GMT.

  • Wind
    5mph
  • Luft Temp 75°f
  • Sea Pressure 1015.9mb
  • Lahaina / West Maui
  • Lahaina / West Maui

More Historic Weather Station data

Upgrade to MSW Pro to gain access to the past 30 days of data for over 8000 Wavebouys and Weather Stations around the globe.

Join Pro

Comparision Forecast

View Surf forecast
   
Fr 12/02 8:45 5
mph
1015.9mb 75f
7:45  -  mph 1015.6mb 72f
6:45 12 18 mph 1014.9mb 73f
6:00 5
mph
1014.6mb 72f
Do 12/01 5:45 32 45 mph 1013.2mb 73f
4:45 20 31 mph 1013.9mb 73f
3:45 14 20 mph 1015.2mb 70f
2:45  -  mph 1015.6mb 70f
1:45 22 33 mph 1015.6mb 72f
12:45 18 28 mph 1016.3mb 73f
11:45 12 21 mph 1016.6mb 73f
10:45 14
mph
1017.6mb 73f
9:45 15 24 mph 1018mb 72f
8:45 18 25 mph 1017.3mb 72f
7:45 15 21 mph 1016.9mb 72f
6:45 5
mph
1016.9mb 72f
6:00 8
mph
1016.6mb 72f
Mi 11/30 5:45 16 30 mph 1015.6mb 73f
4:45 30 46 mph 1013.9mb 73f
3:45 37 45 mph 1013.9mb 77f
2:45 29 43 mph 1014.9mb 77f
1:48 22 35 mph 1015.2mb 79f
12:45 25 37 mph 1015.9mb 79f
11:50 23 40 mph 1016.6mb 77f
10:50 23 35 mph 1018.3mb 75f
9:50 21 29 mph 1019.3mb 73f
8:50 17 28 mph 1019.3mb 72f
7:50 12 21 mph 1019mb 72f
6:50 9
mph
1018.3mb 72f
6:06 14 21 mph 1018.3mb 72f
Di 11/29 5:45 14 23 mph 1017.6mb 70f
4:50 17 25 mph 1017.3mb 73f
3:50 17 28 mph 1017.3mb 73f
2:50 21 25 mph 1016.9mb 72f
1:50 17 27 mph 1017.6mb 70f
12:50 14 27 mph 1018.6mb 70f
11:50 14 25 mph 1019mb 72f
10:50 17 27 mph 1019.6mb 73f
9:50 17 25 mph 1020mb 72f
8:50 12 23 mph 1019.6mb 72f
7:50 12 20 mph 1019.3mb 70f
6:50 14 29 mph 1018.6mb 72f
6:05 17 25 mph 1018.6mb 72f